Albion, Washington
Current Conditions -  °F | °C
As of 8:53 AM on Thursday 30 Oct 2014 (Local Time) from KPUW Reporting Station
Overcast Overcast  
Wind Chill: 51°   Ceiling: 9000
Heat Index: 51°   Visibility: 10mi
Dew Point: 41°   Wind: 13mph
Humidity: 68%   Direction: 100°E
Pressure: 30.11"   Gusts: NA
Location:  46.79°N, 117.25°W
Report Text: KPUW 301553Z AUTO 10011KT 10SM BKN090 OVC110 11/05 A3011 RMK AO2 SLP201 T01060050
Loading
Personal Weather Stations






























Interactive Weather Map
Tropical Storm Tracking
New forecast layout! Learn more

10-Day Weather Forecast

Advertisements
Track Severe Weather on mobile